sensor_id;sensor_type;location;lat;lon;timestamp;pressure;altitude;pressure_sealevel;temperature;humidity
50166;BME280;36071;48.140;11.516;2023-04-26T00:00:59;95440.0;;;6.5;85.9
50166;BME280;36071;48.140;11.516;2023-04-26T00:05:55;95440.0;;;6.5;86.3
50166;BME280;36071;48.140;11.516;2023-04-26T00:10:55;95430.0;;;6.5;86.3
50166;BME280;36071;48.140;11.516;2023-04-26T00:15:55;95430.0;;;6.5;85.4
50166;BME280;36071;48.140;11.516;2023-04-26T00:20:55;95440.0;;;6.6;85.6
50166;BME280;36071;48.140;11.516;2023-04-26T00:25:55;95430.0;;;6.6;85.7
50166;BME280;36071;48.140;11.516;2023-04-26T00:30:55;95430.0;;;6.6;85.4
50166;BME280;36071;48.140;11.516;2023-04-26T00:35:55;95430.0;;;6.7;85.5
50166;BME280;36071;48.140;11.516;2023-04-26T00:40:55;95430.0;;;6.7;86.8
50166;BME280;36071;48.140;11.516;2023-04-26T00:45:55;95430.0;;;6.6;83.9
50166;BME280;36071;48.140;11.516;2023-04-26T00:50:55;95440.0;;;6.6;83.9
50166;BME280;36071;48.140;11.516;2023-04-26T00:55:55;95430.0;;;6.6;83.5
50166;BME280;36071;48.140;11.516;2023-04-26T01:00:55;95430.0;;;6.5;82.4
50166;BME280;36071;48.140;11.516;2023-04-26T01:05:55;95440.0;;;6.5;83.4
50166;BME280;36071;48.140;11.516;2023-04-26T01:10:55;95440.0;;;6.4;82.3
50166;BME280;36071;48.140;11.516;2023-04-26T01:15:55;95450.0;;;6.3;81.9
50166;BME280;36071;48.140;11.516;2023-04-26T01:20:55;95440.0;;;6.4;81.8
50166;BME280;36071;48.140;11.516;2023-04-26T01:25:55;95440.0;;;6.3;82.6
50166;BME280;36071;48.140;11.516;2023-04-26T01:30:55;95440.0;;;6.4;82.2
50166;BME280;36071;48.140;11.516;2023-04-26T01:35:55;95450.0;;;6.4;83.3
50166;BME280;36071;48.140;11.516;2023-04-26T01:40:55;95450.0;;;6.3;85.2
50166;BME280;36071;48.140;11.516;2023-04-26T01:45:55;95460.0;;;6.3;84.4
50166;BME280;36071;48.140;11.516;2023-04-26T01:50:55;95450.0;;;6.2;84.6
50166;BME280;36071;48.140;11.516;2023-04-26T01:55:55;95460.0;;;6.1;85.2
50166;BME280;36071;48.140;11.516;2023-04-26T02:00:55;95470.0;;;6.0;83.7
50166;BME280;36071;48.140;11.516;2023-04-26T02:05:55;95460.0;;;5.9;82.7
50166;BME280;36071;48.140;11.516;2023-04-26T02:10:55;95470.0;;;6.0;82.0
50166;BME280;36071;48.140;11.516;2023-04-26T02:15:55;95460.0;;;5.8;83.4
50166;BME280;36071;48.140;11.516;2023-04-26T02:20:55;95460.0;;;5.8;83.7
50166;BME280;36071;48.140;11.516;2023-04-26T02:30:55;95450.0;;;5.8;82.7
50166;BME280;36071;48.140;11.516;2023-04-26T02:35:55;95450.0;;;5.6;84.4
50166;BME280;36071;48.140;11.516;2023-04-26T02:40:57;95460.0;;;5.5;84.0
50166;BME280;36071;48.140;11.516;2023-04-26T02:45:55;95450.0;;;5.6;82.9
50166;BME280;36071;48.140;11.516;2023-04-26T02:50:55;95460.0;;;5.5;82.3
50166;BME280;36071;48.140;11.516;2023-04-26T02:55:55;95460.0;;;5.6;82.4
50166;BME280;36071;48.140;11.516;2023-04-26T03:00:55;95460.0;;;5.6;81.7
50166;BME280;36071;48.140;11.516;2023-04-26T03:05:55;95450.0;;;5.6;82.3
50166;BME280;36071;48.140;11.516;2023-04-26T03:10:55;95460.0;;;5.5;81.6
50166;BME280;36071;48.140;11.516;2023-04-26T03:15:55;95460.0;;;5.5;83.0
50166;BME280;36071;48.140;11.516;2023-04-26T03:20:55;95460.0;;;5.5;82.6
50166;BME280;36071;48.140;11.516;2023-04-26T03:25:55;95460.0;;;5.4;82.9
50166;BME280;36071;48.140;11.516;2023-04-26T03:30:55;95460.0;;;5.4;83.4
50166;BME280;36071;48.140;11.516;2023-04-26T03:35:55;95460.0;;;5.4;83.3
50166;BME280;36071;48.140;11.516;2023-04-26T03:40:55;95470.0;;;5.4;84.4
50166;BME280;36071;48.140;11.516;2023-04-26T03:45:55;95470.0;;;5.4;84.1
50166;BME280;36071;48.140;11.516;2023-04-26T03:50:55;95470.0;;;5.4;85.3
50166;BME280;36071;48.140;11.516;2023-04-26T03:55:55;95460.0;;;5.4;84.6
50166;BME280;36071;48.140;11.516;2023-04-26T04:00:55;95470.0;;;5.3;84.1
50166;BME280;36071;48.140;11.516;2023-04-26T04:05:55;95460.0;;;5.3;84.6
50166;BME280;36071;48.140;11.516;2023-04-26T04:10:55;95470.0;;;5.3;84.6
50166;BME280;36071;48.140;11.516;2023-04-26T04:15:55;95470.0;;;5.3;85.1
50166;BME280;36071;48.140;11.516;2023-04-26T04:20:55;95470.0;;;5.3;84.9
50166;BME280;36071;48.140;11.516;2023-04-26T04:25:55;95480.0;;;5.3;85.8
50166;BME280;36071;48.140;11.516;2023-04-26T04:30:55;95480.0;;;5.3;85.3
50166;BME280;36071;48.140;11.516;2023-04-26T04:35:55;95490.0;;;5.4;85.6
50166;BME280;36071;48.140;11.516;2023-04-26T04:40:55;95490.0;;;5.4;86.1
50166;BME280;36071;48.140;11.516;2023-04-26T04:45:55;95500.0;;;5.4;85.8
50166;BME280;36071;48.140;11.516;2023-04-26T04:50:55;95500.0;;;5.4;86.4
50166;BME280;36071;48.140;11.516;2023-04-26T04:55:55;95500.0;;;5.4;86.1
50166;BME280;36071;48.140;11.516;2023-04-26T05:00:55;95510.0;;;5.5;85.6
50166;BME280;36071;48.140;11.516;2023-04-26T05:05:55;95520.0;;;5.5;86.4
50166;BME280;36071;48.140;11.516;2023-04-26T05:10:55;95530.0;;;5.5;86.3
50166;BME280;36071;48.140;11.516;2023-04-26T05:15:55;95530.0;;;5.6;86.5
50166;BME280;36071;48.140;11.516;2023-04-26T05:20:56;95530.0;;;5.6;86.2
50166;BME280;36071;48.140;11.516;2023-04-26T05:25:55;95530.0;;;5.6;86.6
50166;BME280;36071;48.140;11.516;2023-04-26T05:30:55;95530.0;;;5.6;87.1
50166;BME280;36071;48.140;11.516;2023-04-26T05:40:55;95540.0;;;5.6;86.1
50166;BME280;36071;48.140;11.516;2023-04-26T05:45:55;95540.0;;;5.5;86.5
50166;BME280;36071;48.140;11.516;2023-04-26T05:50:55;95540.0;;;5.5;86.0
50166;BME280;36071;48.140;11.516;2023-04-26T05:55:55;95550.0;;;5.6;84.8
50166;BME280;36071;48.140;11.516;2023-04-26T06:00:55;95550.0;;;5.7;84.1
50166;BME280;36071;48.140;11.516;2023-04-26T06:05:55;95550.0;;;5.7;84.9
50166;BME280;36071;48.140;11.516;2023-04-26T06:10:55;95560.0;;;5.8;85.0
50166;BME280;36071;48.140;11.516;2023-04-26T06:15:55;95560.0;;;5.9;82.7
50166;BME280;36071;48.140;11.516;2023-04-26T06:20:55;95560.0;;;5.8;82.2
50166;BME280;36071;48.140;11.516;2023-04-26T06:25:55;95560.0;;;5.8;81.6
50166;BME280;36071;48.140;11.516;2023-04-26T06:30:55;95570.0;;;6.0;81.5
50166;BME280;36071;48.140;11.516;2023-04-26T06:35:55;95560.0;;;6.1;81.0
50166;BME280;36071;48.140;11.516;2023-04-26T06:40:55;95560.0;;;6.2;79.3
50166;BME280;36071;48.140;11.516;2023-04-26T06:45:55;95560.0;;;6.3;77.9
50166;BME280;36071;48.140;11.516;2023-04-26T06:50:55;95570.0;;;6.5;77.4
50166;BME280;36071;48.140;11.516;2023-04-26T06:55:55;95570.0;;;6.6;76.9
50166;BME280;36071;48.140;11.516;2023-04-26T07:00:55;95570.0;;;6.8;73.8
50166;BME280;36071;48.140;11.516;2023-04-26T07:05:55;95570.0;;;7.0;72.0
50166;BME280;36071;48.140;11.516;2023-04-26T07:10:55;95570.0;;;7.1;73.3
50166;BME280;36071;48.140;11.516;2023-04-26T07:15:55;95570.0;;;7.1;72.4
50166;BME280;36071;48.140;11.516;2023-04-26T07:20:55;95570.0;;;7.1;71.1
50166;BME280;36071;48.140;11.516;2023-04-26T07:25:55;95570.0;;;7.2;70.3
50166;BME280;36071;48.140;11.516;2023-04-26T07:30:55;95560.0;;;7.3;70.9
50166;BME280;36071;48.140;11.516;2023-04-26T07:35:56;95570.0;;;7.3;69.0
50166;BME280;36071;48.140;11.516;2023-04-26T07:40:55;95560.0;;;7.6;67.5
50166;BME280;36071;48.140;11.516;2023-04-26T07:45:57;95570.0;;;7.7;67.4
50166;BME280;36071;48.140;11.516;2023-04-26T07:50:55;95560.0;;;7.8;66.9
50166;BME280;36071;48.140;11.516;2023-04-26T07:55:55;95550.0;;;7.9;66.6
50166;BME280;36071;48.140;11.516;2023-04-26T08:00:55;95570.0;;;7.7;66.2
50166;BME280;36071;48.140;11.516;2023-04-26T08:05:57;95560.0;;;7.6;65.9
50166;BME280;36071;48.140;11.516;2023-04-26T08:10:55;95570.0;;;7.6;67.0
50166;BME280;36071;48.140;11.516;2023-04-26T08:15:55;95560.0;;;7.8;68.4
50166;BME280;36071;48.140;11.516;2023-04-26T08:20:55;95560.0;;;8.2;67.3
50166;BME280;36071;48.140;11.516;2023-04-26T08:25:55;95560.0;;;9.0;65.2
50166;BME280;36071;48.140;11.516;2023-04-26T08:30:55;95560.0;;;9.3;60.3
50166;BME280;36071;48.140;11.516;2023-04-26T08:35:57;95560.0;;;9.4;59.3
50166;BME280;36071;48.140;11.516;2023-04-26T08:40:55;95570.0;;;9.4;59.9
50166;BME280;36071;48.140;11.516;2023-04-26T08:45:55;95560.0;;;9.1;59.6
50166;BME280;36071;48.140;11.516;2023-04-26T08:50:55;95560.0;;;8.9;59.4
50166;BME280;36071;48.140;11.516;2023-04-26T08:55:55;95560.0;;;8.8;58.7
50166;BME280;36071;48.140;11.516;2023-04-26T09:00:55;95560.0;;;9.1;57.0
50166;BME280;36071;48.140;11.516;2023-04-26T09:05:57;95570.0;;;9.6;55.7
50166;BME280;36071;48.140;11.516;2023-04-26T09:10:55;95570.0;;;9.7;55.6
50166;BME280;36071;48.140;11.516;2023-04-26T09:15:55;95570.0;;;9.6;55.2
50166;BME280;36071;48.140;11.516;2023-04-26T09:21:03;95560.0;;;9.8;54.6
50166;BME280;36071;48.140;11.516;2023-04-26T09:25:55;95560.0;;;9.7;54.2
50166;BME280;36071;48.140;11.516;2023-04-26T09:30:55;95550.0;;;9.4;56.3
50166;BME280;36071;48.140;11.516;2023-04-26T09:35:55;95550.0;;;9.3;54.8
50166;BME280;36071;48.140;11.516;2023-04-26T09:40:55;95550.0;;;9.3;54.9
50166;BME280;36071;48.140;11.516;2023-04-26T09:45:56;95550.0;;;9.4;53.6
50166;BME280;36071;48.140;11.516;2023-04-26T09:50:56;95550.0;;;9.4;53.4
50166;BME280;36071;48.140;11.516;2023-04-26T09:55:56;95550.0;;;9.4;52.8
50166;BME280;36071;48.140;11.516;2023-04-26T10:00:55;95570.0;;;9.3;53.2
50166;BME280;36071;48.140;11.516;2023-04-26T10:05:55;95560.0;;;9.3;53.2
50166;BME280;36071;48.140;11.516;2023-04-26T10:10:55;95560.0;;;9.5;54.4
50166;BME280;36071;48.140;11.516;2023-04-26T10:15:55;95540.0;;;9.7;53.6
50166;BME280;36071;48.140;11.516;2023-04-26T10:20:56;95540.0;;;10.6;51.2
50166;BME280;36071;48.140;11.516;2023-04-26T10:25:55;95530.0;;;12.2;48.8
50166;BME280;36071;48.140;11.516;2023-04-26T10:30:56;95520.0;;;12.9;49.4
50166;BME280;36071;48.140;11.516;2023-04-26T10:36:00;95520.0;;;13.2;45.2
50166;BME280;36071;48.140;11.516;2023-04-26T10:40:55;95520.0;;;13.1;45.7
50166;BME280;36071;48.140;11.516;2023-04-26T10:45:55;95510.0;;;13.0;45.6
50166;BME280;36071;48.140;11.516;2023-04-26T10:51:10;95500.0;;;13.8;43.2
50166;BME280;36071;48.140;11.516;2023-04-26T10:55:57;95500.0;;;14.4;41.5
50166;BME280;36071;48.140;11.516;2023-04-26T11:01:03;95490.0;;;15.1;41.7
50166;BME280;36071;48.140;11.516;2023-04-26T11:05:55;95490.0;;;14.7;41.5
50166;BME280;36071;48.140;11.516;2023-04-26T11:10:56;95480.0;;;14.1;42.2
50166;BME280;36071;48.140;11.516;2023-04-26T11:15:58;95470.0;;;14.7;40.0
50166;BME280;36071;48.140;11.516;2023-04-26T11:20:55;95470.0;;;15.1;39.0
50166;BME280;36071;48.140;11.516;2023-04-26T11:25:56;95470.0;;;14.9;38.5
50166;BME280;36071;48.140;11.516;2023-04-26T11:30:55;95470.0;;;14.5;41.6
50166;BME280;36071;48.140;11.516;2023-04-26T11:35:56;95470.0;;;13.7;42.9
50166;BME280;36071;48.140;11.516;2023-04-26T11:40:56;95470.0;;;13.3;43.5
50166;BME280;36071;48.140;11.516;2023-04-26T11:45:57;95470.0;;;13.1;42.8
50166;BME280;36071;48.140;11.516;2023-04-26T11:50:55;95470.0;;;13.8;42.4
50166;BME280;36071;48.140;11.516;2023-04-26T11:55:55;95480.0;;;13.8;40.5
50166;BME280;36071;48.140;11.516;2023-04-26T12:00:56;95480.0;;;13.7;41.1
50166;BME280;36071;48.140;11.516;2023-04-26T12:05:55;95470.0;;;13.7;40.3
50166;BME280;36071;48.140;11.516;2023-04-26T12:10:57;95460.0;;;14.3;41.3
50166;BME280;36071;48.140;11.516;2023-04-26T12:15:55;95470.0;;;14.4;41.0
50166;BME280;36071;48.140;11.516;2023-04-26T12:20:56;95470.0;;;14.6;40.5
50166;BME280;36071;48.140;11.516;2023-04-26T12:25:56;95470.0;;;14.3;41.0
50166;BME280;36071;48.140;11.516;2023-04-26T12:30:55;95480.0;;;13.6;40.6
50166;BME280;36071;48.140;11.516;2023-04-26T12:35:55;95470.0;;;13.7;42.6
50166;BME280;36071;48.140;11.516;2023-04-26T12:40:55;95480.0;;;13.3;42.5
50166;BME280;36071;48.140;11.516;2023-04-26T12:50:55;95470.0;;;13.4;43.1
50166;BME280;36071;48.140;11.516;2023-04-26T12:55:55;95450.0;;;14.0;42.2
50166;BME280;36071;48.140;11.516;2023-04-26T13:00:55;95450.0;;;14.7;42.0
50166;BME280;36071;48.140;11.516;2023-04-26T13:05:55;95450.0;;;14.6;40.0
50166;BME280;36071;48.140;11.516;2023-04-26T13:10:55;95440.0;;;14.1;39.8
50166;BME280;36071;48.140;11.516;2023-04-26T13:15:55;95440.0;;;14.1;39.7
50166;BME280;36071;48.140;11.516;2023-04-26T13:20:55;95440.0;;;14.4;39.1
50166;BME280;36071;48.140;11.516;2023-04-26T13:25:55;95430.0;;;14.6;39.9
50166;BME280;36071;48.140;11.516;2023-04-26T13:30:55;95440.0;;;14.4;38.9
50166;BME280;36071;48.140;11.516;2023-04-26T13:35:55;95430.0;;;14.6;39.8
50166;BME280;36071;48.140;11.516;2023-04-26T13:40:55;95430.0;;;14.6;38.2
50166;BME280;36071;48.140;11.516;2023-04-26T13:45:55;95420.0;;;14.4;39.3
50166;BME280;36071;48.140;11.516;2023-04-26T13:50:55;95410.0;;;14.0;38.6
50166;BME280;36071;48.140;11.516;2023-04-26T13:55:56;95410.0;;;14.2;38.7
50166;BME280;36071;48.140;11.516;2023-04-26T14:00:55;95400.0;;;14.7;38.2
50166;BME280;36071;48.140;11.516;2023-04-26T14:05:55;95410.0;;;14.8;37.8
50166;BME280;36071;48.140;11.516;2023-04-26T14:10:55;95400.0;;;14.6;38.0
50166;BME280;36071;48.140;11.516;2023-04-26T14:15:55;95400.0;;;14.3;37.6
50166;BME280;36071;48.140;11.516;2023-04-26T14:20:55;95400.0;;;14.2;37.5
50166;BME280;36071;48.140;11.516;2023-04-26T14:25:55;95400.0;;;14.5;37.4
50166;BME280;36071;48.140;11.516;2023-04-26T14:30:55;95410.0;;;14.5;38.5
50166;BME280;36071;48.140;11.516;2023-04-26T14:35:55;95410.0;;;14.4;39.4
50166;BME280;36071;48.140;11.516;2023-04-26T14:40:55;95400.0;;;14.5;39.0
50166;BME280;36071;48.140;11.516;2023-04-26T14:45:55;95410.0;;;14.9;39.4
50166;BME280;36071;48.140;11.516;2023-04-26T14:50:56;95400.0;;;14.5;39.2
50166;BME280;36071;48.140;11.516;2023-04-26T14:55:55;95410.0;;;14.1;39.2
50166;BME280;36071;48.140;11.516;2023-04-26T15:00:55;95400.0;;;14.1;39.9
50166;BME280;36071;48.140;11.516;2023-04-26T15:05:55;95410.0;;;13.9;39.9
50166;BME280;36071;48.140;11.516;2023-04-26T15:10:55;95410.0;;;13.7;40.7
50166;BME280;36071;48.140;11.516;2023-04-26T15:15:55;95400.0;;;13.8;40.7
50166;BME280;36071;48.140;11.516;2023-04-26T15:20:55;95400.0;;;13.8;41.0
50166;BME280;36071;48.140;11.516;2023-04-26T15:25:59;95390.0;;;14.1;41.4
50166;BME280;36071;48.140;11.516;2023-04-26T15:31:00;95390.0;;;14.2;40.3
50166;BME280;36071;48.140;11.516;2023-04-26T15:35:56;95390.0;;;14.1;40.7
50166;BME280;36071;48.140;11.516;2023-04-26T15:40:55;95390.0;;;14.2;40.2
50166;BME280;36071;48.140;11.516;2023-04-26T15:45:55;95390.0;;;14.0;40.6
50166;BME280;36071;48.140;11.516;2023-04-26T15:50:55;95390.0;;;13.9;40.3
50166;BME280;36071;48.140;11.516;2023-04-26T15:55:55;95390.0;;;13.9;39.9
50166;BME280;36071;48.140;11.516;2023-04-26T16:00:55;95390.0;;;13.6;40.7
50166;BME280;36071;48.140;11.516;2023-04-26T16:05:55;95410.0;;;13.6;40.7
50166;BME280;36071;48.140;11.516;2023-04-26T16:10:57;95390.0;;;13.6;40.9
50166;BME280;36071;48.140;11.516;2023-04-26T16:15:55;95400.0;;;13.6;41.4
50166;BME280;36071;48.140;11.516;2023-04-26T16:21:01;95310.0;;;13.1;40.9
50166;BME280;36071;48.140;11.516;2023-04-26T16:25:55;95390.0;;;13.5;41.7
50166;BME280;36071;48.140;11.516;2023-04-26T16:30:57;95390.0;;;13.5;42.9
50166;BME280;36071;48.140;11.516;2023-04-26T16:35:55;95400.0;;;13.4;43.1
50166;BME280;36071;48.140;11.516;2023-04-26T16:40:56;95400.0;;;13.3;43.2
50166;BME280;36071;48.140;11.516;2023-04-26T16:45:56;95390.0;;;13.3;44.1
50166;BME280;36071;48.140;11.516;2023-04-26T16:50:55;95410.0;;;13.2;43.5
50166;BME280;36071;48.140;11.516;2023-04-26T16:55:56;95400.0;;;13.1;43.2
50166;BME280;36071;48.140;11.516;2023-04-26T17:00:56;95400.0;;;12.9;42.8
50166;BME280;36071;48.140;11.516;2023-04-26T17:05:55;95410.0;;;12.9;44.0
50166;BME280;36071;48.140;11.516;2023-04-26T17:10:55;95410.0;;;12.8;44.4
50166;BME280;36071;48.140;11.516;2023-04-26T17:15:55;95420.0;;;12.7;44.1
50166;BME280;36071;48.140;11.516;2023-04-26T17:20:55;95420.0;;;12.8;45.9
50166;BME280;36071;48.140;11.516;2023-04-26T17:25:55;95430.0;;;12.6;44.9
50166;BME280;36071;48.140;11.516;2023-04-26T17:30:55;95430.0;;;12.6;44.4
50166;BME280;36071;48.140;11.516;2023-04-26T17:40:58;95440.0;;;12.4;45.5
50166;BME280;36071;48.140;11.516;2023-04-26T17:45:55;95440.0;;;12.3;45.6
50166;BME280;36071;48.140;11.516;2023-04-26T17:50:55;95440.0;;;12.2;45.1
50166;BME280;36071;48.140;11.516;2023-04-26T17:55:55;95450.0;;;12.1;45.3
50166;BME280;36071;48.140;11.516;2023-04-26T18:00:55;95370.0;;;11.4;46.0
50166;BME280;36071;48.140;11.516;2023-04-26T18:05:55;95450.0;;;11.9;45.8
50166;BME280;36071;48.140;11.516;2023-04-26T18:10:56;95450.0;;;11.9;45.3
50166;BME280;36071;48.140;11.516;2023-04-26T18:15:55;95460.0;;;11.8;45.4
50166;BME280;36071;48.140;11.516;2023-04-26T18:20:55;95460.0;;;11.7;45.7
50166;BME280;36071;48.140;11.516;2023-04-26T18:25:55;95470.0;;;11.6;46.0
50166;BME280;36071;48.140;11.516;2023-04-26T18:30:55;95480.0;;;11.5;45.8
50166;BME280;36071;48.140;11.516;2023-04-26T18:35:55;95480.0;;;11.4;46.1
50166;BME280;36071;48.140;11.516;2023-04-26T18:40:55;95490.0;;;11.4;46.7
50166;BME280;36071;48.140;11.516;2023-04-26T18:45:55;95490.0;;;11.2;47.5
50166;BME280;36071;48.140;11.516;2023-04-26T18:50:55;95490.0;;;11.3;46.6
50166;BME280;36071;48.140;11.516;2023-04-26T18:55:57;95500.0;;;11.2;47.1
50166;BME280;36071;48.140;11.516;2023-04-26T19:00:55;95500.0;;;11.3;46.1
50166;BME280;36071;48.140;11.516;2023-04-26T19:05:55;95510.0;;;11.2;46.6
50166;BME280;36071;48.140;11.516;2023-04-26T19:10:55;95510.0;;;11.2;46.3
50166;BME280;36071;48.140;11.516;2023-04-26T19:15:55;95510.0;;;11.1;46.8
50166;BME280;36071;48.140;11.516;2023-04-26T19:21:01;95510.0;;;11.0;46.8
50166;BME280;36071;48.140;11.516;2023-04-26T19:26:00;95510.0;;;11.0;46.6
50166;BME280;36071;48.140;11.516;2023-04-26T19:30:55;95520.0;;;10.9;46.5
50166;BME280;36071;48.140;11.516;2023-04-26T19:35:57;95520.0;;;10.9;46.6
50166;BME280;36071;48.140;11.516;2023-04-26T19:40:56;95510.0;;;10.7;47.0
50166;BME280;36071;48.140;11.516;2023-04-26T19:45:55;95520.0;;;10.7;47.1
50166;BME280;36071;48.140;11.516;2023-04-26T19:50:56;95530.0;;;10.7;47.9
50166;BME280;36071;48.140;11.516;2023-04-26T19:55:55;95520.0;;;10.7;47.8
50166;BME280;36071;48.140;11.516;2023-04-26T20:00:55;95530.0;;;10.6;47.8
50166;BME280;36071;48.140;11.516;2023-04-26T20:05:55;95530.0;;;10.5;47.9
50166;BME280;36071;48.140;11.516;2023-04-26T20:10:55;95530.0;;;10.5;48.0
50166;BME280;36071;48.140;11.516;2023-04-26T20:15:55;95520.0;;;10.4;47.7
50166;BME280;36071;48.140;11.516;2023-04-26T20:20:55;95530.0;;;10.4;47.2
50166;BME280;36071;48.140;11.516;2023-04-26T20:25:55;95530.0;;;10.4;47.1
50166;BME280;36071;48.140;11.516;2023-04-26T20:30:56;95530.0;;;10.4;47.2
50166;BME280;36071;48.140;11.516;2023-04-26T20:35:55;95530.0;;;10.4;48.0
50166;BME280;36071;48.140;11.516;2023-04-26T20:40:55;95540.0;;;10.4;48.2
50166;BME280;36071;48.140;11.516;2023-04-26T20:45:57;95550.0;;;10.4;47.1
50166;BME280;36071;48.140;11.516;2023-04-26T20:50:55;95550.0;;;10.3;47.4
50166;BME280;36071;48.140;11.516;2023-04-26T20:55:55;95540.0;;;10.4;47.4
50166;BME280;36071;48.140;11.516;2023-04-26T21:00:55;95550.0;;;10.4;47.5
50166;BME280;36071;48.140;11.516;2023-04-26T21:05:55;95550.0;;;10.3;48.1
50166;BME280;36071;48.140;11.516;2023-04-26T21:10:55;95550.0;;;10.3;47.8
50166;BME280;36071;48.140;11.516;2023-04-26T21:15:55;95550.0;;;10.3;48.3
50166;BME280;36071;48.140;11.516;2023-04-26T21:20:55;95550.0;;;10.2;49.1
50166;BME280;36071;48.140;11.516;2023-04-26T21:25:55;95550.0;;;10.1;49.4
50166;BME280;36071;48.140;11.516;2023-04-26T21:31:03;95550.0;;;10.2;48.7
50166;BME280;36071;48.140;11.516;2023-04-26T21:35:55;95550.0;;;10.1;48.7
50166;BME280;36071;48.140;11.516;2023-04-26T21:40:55;95550.0;;;10.1;49.5
50166;BME280;36071;48.140;11.516;2023-04-26T21:45:55;95550.0;;;10.0;50.8
50166;BME280;36071;48.140;11.516;2023-04-26T21:50:55;95550.0;;;9.9;51.9
50166;BME280;36071;48.140;11.516;2023-04-26T21:56:03;95550.0;;;9.8;52.2
50166;BME280;36071;48.140;11.516;2023-04-26T22:01:04;95550.0;;;9.8;51.8
50166;BME280;36071;48.140;11.516;2023-04-26T22:05:55;95560.0;;;9.9;52.4
50166;BME280;36071;48.140;11.516;2023-04-26T22:10:55;95560.0;;;9.8;52.1
50166;BME280;36071;48.140;11.516;2023-04-26T22:15:55;95560.0;;;9.8;52.0
50166;BME280;36071;48.140;11.516;2023-04-26T22:20:55;95550.0;;;9.7;52.4
50166;BME280;36071;48.140;11.516;2023-04-26T22:25:55;95560.0;;;9.7;52.0
50166;BME280;36071;48.140;11.516;2023-04-26T22:30:55;95560.0;;;9.6;52.3
50166;BME280;36071;48.140;11.516;2023-04-26T22:35:55;95550.0;;;9.6;52.8
50166;BME280;36071;48.140;11.516;2023-04-26T22:40:55;95560.0;;;9.6;53.2
50166;BME280;36071;48.140;11.516;2023-04-26T22:45:55;95560.0;;;9.5;54.1
50166;BME280;36071;48.140;11.516;2023-04-26T22:50:55;95560.0;;;9.4;55.2
50166;BME280;36071;48.140;11.516;2023-04-26T22:55:55;95570.0;;;9.4;54.8
50166;BME280;36071;48.140;11.516;2023-04-26T23:00:55;95570.0;;;9.4;54.6
50166;BME280;36071;48.140;11.516;2023-04-26T23:05:55;95570.0;;;9.3;55.1
50166;BME280;36071;48.140;11.516;2023-04-26T23:10:55;95570.0;;;9.3;54.5
50166;BME280;36071;48.140;11.516;2023-04-26T23:15:55;95570.0;;;9.3;53.8
50166;BME280;36071;48.140;11.516;2023-04-26T23:20:56;95570.0;;;9.2;54.2
50166;BME280;36071;48.140;11.516;2023-04-26T23:25:55;95560.0;;;9.2;54.5
50166;BME280;36071;48.140;11.516;2023-04-26T23:30:55;95560.0;;;9.1;53.6
50166;BME280;36071;48.140;11.516;2023-04-26T23:35:55;95560.0;;;9.1;54.1
50166;BME280;36071;48.140;11.516;2023-04-26T23:40:55;95560.0;;;9.1;54.4
50166;BME280;36071;48.140;11.516;2023-04-26T23:45:55;95560.0;;;9.1;55.2
50166;BME280;36071;48.140;11.516;2023-04-26T23:50:55;95560.0;;;8.9;54.1
50166;BME280;36071;48.140;11.516;2023-04-26T23:55:55;95550.0;;;9.0;54.8
